sensor_id;sensor_type;location;lat;lon;timestamp;temperature;humidity
52187;DHT22;38161;53.020;6.598;2022-07-29T00:02:04;14.80;99.90
52187;DHT22;38161;53.020;6.598;2022-07-29T00:04:30;14.80;99.90
52187;DHT22;38161;53.020;6.598;2022-07-29T00:06:55;14.70;99.90
52187;DHT22;38161;53.020;6.598;2022-07-29T00:09:21;14.80;99.90
52187;DHT22;38161;53.020;6.598;2022-07-29T00:11:47;14.70;99.90
52187;DHT22;38161;53.020;6.598;2022-07-29T00:14:13;14.70;99.90
52187;DHT22;38161;53.020;6.598;2022-07-29T00:16:39;14.70;99.90
52187;DHT22;38161;53.020;6.598;2022-07-29T00:19:04;14.70;99.90
52187;DHT22;38161;53.020;6.598;2022-07-29T00:21:30;14.70;99.90
52187;DHT22;38161;53.020;6.598;2022-07-29T00:23:56;14.70;99.90
52187;DHT22;38161;53.020;6.598;2022-07-29T00:26:21;14.70;99.90
52187;DHT22;38161;53.020;6.598;2022-07-29T00:28:47;14.80;99.90
52187;DHT22;38161;53.020;6.598;2022-07-29T00:31:13;14.80;99.90
52187;DHT22;38161;53.020;6.598;2022-07-29T00:33:38;14.70;99.90
52187;DHT22;38161;53.020;6.598;2022-07-29T00:36:04;14.70;99.90
52187;DHT22;38161;53.020;6.598;2022-07-29T00:38:30;14.70;99.90
52187;DHT22;38161;53.020;6.598;2022-07-29T00:40:56;14.70;99.90
52187;DHT22;38161;53.020;6.598;2022-07-29T00:43:21;14.70;99.90
52187;DHT22;38161;53.020;6.598;2022-07-29T00:45:47;14.70;99.90
52187;DHT22;38161;53.020;6.598;2022-07-29T00:48:14;14.70;99.90
52187;DHT22;38161;53.020;6.598;2022-07-29T00:50:39;14.70;99.90
52187;DHT22;38161;53.020;6.598;2022-07-29T00:53:06;14.70;99.90
52187;DHT22;38161;53.020;6.598;2022-07-29T00:55:32;14.70;99.90
52187;DHT22;38161;53.020;6.598;2022-07-29T00:57:58;14.70;99.90
52187;DHT22;38161;53.020;6.598;2022-07-29T01:00:25;14.70;99.90
52187;DHT22;38161;53.020;6.598;2022-07-29T01:02:51;14.60;99.90
52187;DHT22;38161;53.020;6.598;2022-07-29T01:05:22;14.60;99.90
52187;DHT22;38161;53.020;6.598;2022-07-29T01:07:52;14.60;99.90
52187;DHT22;38161;53.020;6.598;2022-07-29T01:10:19;14.60;99.90
52187;DHT22;38161;53.020;6.598;2022-07-29T01:12:48;14.60;99.90
52187;DHT22;38161;53.020;6.598;2022-07-29T01:15:15;14.60;99.90
52187;DHT22;38161;53.020;6.598;2022-07-29T01:18:01;14.60;99.90
52187;DHT22;38161;53.020;6.598;2022-07-29T01:20:53;14.60;99.90
52187;DHT22;38161;53.020;6.598;2022-07-29T01:28:56;14.60;99.90
52187;DHT22;38161;53.020;6.598;2022-07-29T01:31:49;14.60;99.90
52187;DHT22;38161;53.020;6.598;2022-07-29T01:37:19;14.60;99.90
52187;DHT22;38161;53.020;6.598;2022-07-29T01:39:47;14.60;99.90
52187;DHT22;38161;53.020;6.598;2022-07-29T01:42:30;14.60;99.90
52187;DHT22;38161;53.020;6.598;2022-07-29T01:45:02;14.60;99.90
52187;DHT22;38161;53.020;6.598;2022-07-29T01:47:44;14.60;99.90
52187;DHT22;38161;53.020;6.598;2022-07-29T01:50:14;14.60;99.90
52187;DHT22;38161;53.020;6.598;2022-07-29T01:52:56;14.60;99.90
52187;DHT22;38161;53.020;6.598;2022-07-29T01:55:27;14.70;99.90
52187;DHT22;38161;53.020;6.598;2022-07-29T01:57:54;14.70;99.90
52187;DHT22;38161;53.020;6.598;2022-07-29T02:00:22;14.60;99.90
52187;DHT22;38161;53.020;6.598;2022-07-29T02:02:49;14.60;99.90
52187;DHT22;38161;53.020;6.598;2022-07-29T02:05:19;14.70;99.90
52187;DHT22;38161;53.020;6.598;2022-07-29T02:07:46;14.70;99.90
52187;DHT22;38161;53.020;6.598;2022-07-29T02:10:13;14.70;99.90
52187;DHT22;38161;53.020;6.598;2022-07-29T02:12:42;14.60;99.90
52187;DHT22;38161;53.020;6.598;2022-07-29T02:15:09;14.70;99.90
52187;DHT22;38161;53.020;6.598;2022-07-29T02:17:41;14.60;99.90
52187;DHT22;38161;53.020;6.598;2022-07-29T02:20:09;14.70;99.90
52187;DHT22;38161;53.020;6.598;2022-07-29T02:22:38;14.60;99.90
52187;DHT22;38161;53.020;6.598;2022-07-29T02:25:05;14.60;99.90
52187;DHT22;38161;53.020;6.598;2022-07-29T02:27:33;14.60;99.90
52187;DHT22;38161;53.020;6.598;2022-07-29T02:30:02;14.60;99.90
52187;DHT22;38161;53.020;6.598;2022-07-29T02:32:30;14.60;99.90
52187;DHT22;38161;53.020;6.598;2022-07-29T02:34:57;14.60;99.90
52187;DHT22;38161;53.020;6.598;2022-07-29T02:37:24;14.60;99.90
52187;DHT22;38161;53.020;6.598;2022-07-29T02:39:53;14.60;99.90
52187;DHT22;38161;53.020;6.598;2022-07-29T02:42:21;14.60;99.90
52187;DHT22;38161;53.020;6.598;2022-07-29T02:44:48;14.60;99.90
52187;DHT22;38161;53.020;6.598;2022-07-29T02:47:50;14.60;99.90
52187;DHT22;38161;53.020;6.598;2022-07-29T02:50:20;14.60;99.90
52187;DHT22;38161;53.020;6.598;2022-07-29T02:52:56;14.60;99.90
52187;DHT22;38161;53.020;6.598;2022-07-29T02:55:30;14.50;99.90
52187;DHT22;38161;53.020;6.598;2022-07-29T02:58:15;14.60;99.90
52187;DHT22;38161;53.020;6.598;2022-07-29T03:00:46;14.60;99.90
52187;DHT22;38161;53.020;6.598;2022-07-29T03:03:16;14.50;99.90
52187;DHT22;38161;53.020;6.598;2022-07-29T03:05:42;14.50;99.90
52187;DHT22;38161;53.020;6.598;2022-07-29T03:08:10;14.60;99.90
52187;DHT22;38161;53.020;6.598;2022-07-29T03:10:38;14.50;99.90
52187;DHT22;38161;53.020;6.598;2022-07-29T03:13:05;14.50;99.90
52187;DHT22;38161;53.020;6.598;2022-07-29T03:15:31;14.50;99.90
52187;DHT22;38161;53.020;6.598;2022-07-29T03:17:58;14.50;99.90
52187;DHT22;38161;53.020;6.598;2022-07-29T03:20:25;14.50;99.90
52187;DHT22;38161;53.020;6.598;2022-07-29T03:22:51;14.50;99.90
52187;DHT22;38161;53.020;6.598;2022-07-29T03:25:19;14.50;99.90
52187;DHT22;38161;53.020;6.598;2022-07-29T03:27:46;14.50;99.90
52187;DHT22;38161;53.020;6.598;2022-07-29T03:30:13;14.50;99.90
52187;DHT22;38161;53.020;6.598;2022-07-29T03:32:39;14.50;99.90
52187;DHT22;38161;53.020;6.598;2022-07-29T03:35:06;14.50;99.90
52187;DHT22;38161;53.020;6.598;2022-07-29T03:37:32;14.50;99.90
52187;DHT22;38161;53.020;6.598;2022-07-29T03:40:00;14.50;99.90
52187;DHT22;38161;53.020;6.598;2022-07-29T03:42:30;14.50;99.90
52187;DHT22;38161;53.020;6.598;2022-07-29T03:44:58;14.50;99.90
52187;DHT22;38161;53.020;6.598;2022-07-29T03:47:27;14.50;99.90
52187;DHT22;38161;53.020;6.598;2022-07-29T03:49:59;14.50;99.90
52187;DHT22;38161;53.020;6.598;2022-07-29T03:52:25;14.50;99.90
52187;DHT22;38161;53.020;6.598;2022-07-29T03:54:51;14.50;99.90
52187;DHT22;38161;53.020;6.598;2022-07-29T03:57:20;14.40;99.90
52187;DHT22;38161;53.020;6.598;2022-07-29T03:59:50;14.40;99.90
52187;DHT22;38161;53.020;6.598;2022-07-29T04:02:16;14.40;99.90
52187;DHT22;38161;53.020;6.598;2022-07-29T04:04:42;14.50;99.90
52187;DHT22;38161;53.020;6.598;2022-07-29T04:07:14;14.40;99.90
52187;DHT22;38161;53.020;6.598;2022-07-29T04:09:40;14.40;99.90
52187;DHT22;38161;53.020;6.598;2022-07-29T04:12:07;14.40;99.90
52187;DHT22;38161;53.020;6.598;2022-07-29T04:14:34;14.40;99.90
52187;DHT22;38161;53.020;6.598;2022-07-29T04:17:01;14.40;99.90
52187;DHT22;38161;53.020;6.598;2022-07-29T04:19:27;14.40;99.90
52187;DHT22;38161;53.020;6.598;2022-07-29T04:21:53;14.40;99.90
52187;DHT22;38161;53.020;6.598;2022-07-29T04:24:18;14.40;99.90
52187;DHT22;38161;53.020;6.598;2022-07-29T04:26:46;14.40;99.90
52187;DHT22;38161;53.020;6.598;2022-07-29T04:29:12;14.40;99.90
52187;DHT22;38161;53.020;6.598;2022-07-29T04:31:39;14.40;99.90
52187;DHT22;38161;53.020;6.598;2022-07-29T04:34:05;14.40;99.90
52187;DHT22;38161;53.020;6.598;2022-07-29T04:36:31;14.40;99.90
52187;DHT22;38161;53.020;6.598;2022-07-29T04:38:56;14.50;99.90
52187;DHT22;38161;53.020;6.598;2022-07-29T04:41:23;14.50;99.90
52187;DHT22;38161;53.020;6.598;2022-07-29T04:43:48;14.40;99.90
52187;DHT22;38161;53.020;6.598;2022-07-29T04:46:14;14.50;99.90
52187;DHT22;38161;53.020;6.598;2022-07-29T04:48:40;14.50;99.90
52187;DHT22;38161;53.020;6.598;2022-07-29T04:51:05;14.50;99.90
52187;DHT22;38161;53.020;6.598;2022-07-29T04:53:31;14.50;99.90
52187;DHT22;38161;53.020;6.598;2022-07-29T04:55:57;14.50;99.90
52187;DHT22;38161;53.020;6.598;2022-07-29T04:58:22;14.50;99.90
52187;DHT22;38161;53.020;6.598;2022-07-29T05:00:49;14.50;99.90
52187;DHT22;38161;53.020;6.598;2022-07-29T05:03:15;14.50;99.90
52187;DHT22;38161;53.020;6.598;2022-07-29T05:05:41;14.50;99.90
52187;DHT22;38161;53.020;6.598;2022-07-29T05:08:07;14.50;99.90
52187;DHT22;38161;53.020;6.598;2022-07-29T05:10:33;14.50;99.90
52187;DHT22;38161;53.020;6.598;2022-07-29T05:13:06;14.50;99.90
52187;DHT22;38161;53.020;6.598;2022-07-29T05:15:35;14.50;99.90
52187;DHT22;38161;53.020;6.598;2022-07-29T05:18:01;14.60;99.90
52187;DHT22;38161;53.020;6.598;2022-07-29T05:20:28;14.60;99.90
52187;DHT22;38161;53.020;6.598;2022-07-29T05:22:58;14.60;99.90
52187;DHT22;38161;53.020;6.598;2022-07-29T05:25:25;14.60;99.90
52187;DHT22;38161;53.020;6.598;2022-07-29T05:27:52;14.60;99.90
52187;DHT22;38161;53.020;6.598;2022-07-29T05:30:18;14.60;99.90
52187;DHT22;38161;53.020;6.598;2022-07-29T05:32:44;14.60;99.90
52187;DHT22;38161;53.020;6.598;2022-07-29T05:35:10;14.70;99.90
52187;DHT22;38161;53.020;6.598;2022-07-29T05:37:37;14.70;99.90
52187;DHT22;38161;53.020;6.598;2022-07-29T05:40:03;14.70;99.90
52187;DHT22;38161;53.020;6.598;2022-07-29T05:42:29;14.70;99.90
52187;DHT22;38161;53.020;6.598;2022-07-29T05:44:55;14.80;99.90
52187;DHT22;38161;53.020;6.598;2022-07-29T05:47:21;14.70;99.90
52187;DHT22;38161;53.020;6.598;2022-07-29T05:49:47;14.80;99.90
52187;DHT22;38161;53.020;6.598;2022-07-29T05:52:13;14.80;99.90
52187;DHT22;38161;53.020;6.598;2022-07-29T05:54:39;14.90;99.90
52187;DHT22;38161;53.020;6.598;2022-07-29T05:57:05;14.90;99.90
52187;DHT22;38161;53.020;6.598;2022-07-29T05:59:37;14.90;99.90
52187;DHT22;38161;53.020;6.598;2022-07-29T06:02:03;14.90;99.90
52187;DHT22;38161;53.020;6.598;2022-07-29T06:04:31;14.90;99.90
52187;DHT22;38161;53.020;6.598;2022-07-29T06:06:57;14.90;99.90
52187;DHT22;38161;53.020;6.598;2022-07-29T06:09:22;15.00;99.90
52187;DHT22;38161;53.020;6.598;2022-07-29T06:11:48;15.00;99.90
52187;DHT22;38161;53.020;6.598;2022-07-29T06:14:14;15.00;99.90
52187;DHT22;38161;53.020;6.598;2022-07-29T06:16:40;15.00;99.90
52187;DHT22;38161;53.020;6.598;2022-07-29T06:19:06;15.00;99.90
52187;DHT22;38161;53.020;6.598;2022-07-29T06:21:32;15.10;99.90
52187;DHT22;38161;53.020;6.598;2022-07-29T06:23:59;15.20;99.90
52187;DHT22;38161;53.020;6.598;2022-07-29T06:26:24;15.20;99.90
52187;DHT22;38161;53.020;6.598;2022-07-29T06:28:50;15.20;99.90
52187;DHT22;38161;53.020;6.598;2022-07-29T06:31:16;15.30;99.90
52187;DHT22;38161;53.020;6.598;2022-07-29T06:33:42;15.30;99.90
52187;DHT22;38161;53.020;6.598;2022-07-29T06:36:08;15.30;99.90
52187;DHT22;38161;53.020;6.598;2022-07-29T06:38:34;15.40;99.90
52187;DHT22;38161;53.020;6.598;2022-07-29T06:41:00;15.40;99.90
52187;DHT22;38161;53.020;6.598;2022-07-29T06:43:27;15.40;99.90
52187;DHT22;38161;53.020;6.598;2022-07-29T06:45:53;15.50;99.90
52187;DHT22;38161;53.020;6.598;2022-07-29T06:48:18;15.50;99.90
52187;DHT22;38161;53.020;6.598;2022-07-29T06:50:44;15.50;99.90
52187;DHT22;38161;53.020;6.598;2022-07-29T06:53:10;15.50;99.90
52187;DHT22;38161;53.020;6.598;2022-07-29T06:55:35;15.50;99.90
52187;DHT22;38161;53.020;6.598;2022-07-29T06:58:02;15.50;99.90
52187;DHT22;38161;53.020;6.598;2022-07-29T07:00:28;15.60;99.90
52187;DHT22;38161;53.020;6.598;2022-07-29T07:02:53;15.60;99.90
52187;DHT22;38161;53.020;6.598;2022-07-29T07:05:19;15.60;99.90
52187;DHT22;38161;53.020;6.598;2022-07-29T07:07:45;15.60;99.90
52187;DHT22;38161;53.020;6.598;2022-07-29T07:10:10;15.70;99.90
52187;DHT22;38161;53.020;6.598;2022-07-29T07:12:36;15.70;99.90
52187;DHT22;38161;53.020;6.598;2022-07-29T07:15:02;15.70;99.90
52187;DHT22;38161;53.020;6.598;2022-07-29T07:17:28;15.80;99.90
52187;DHT22;38161;53.020;6.598;2022-07-29T07:19:54;15.80;99.90
52187;DHT22;38161;53.020;6.598;2022-07-29T07:22:19;15.90;99.90
52187;DHT22;38161;53.020;6.598;2022-07-29T07:24:45;15.90;99.90
52187;DHT22;38161;53.020;6.598;2022-07-29T07:27:11;15.90;99.90
52187;DHT22;38161;53.020;6.598;2022-07-29T07:29:36;15.90;99.90
52187;DHT22;38161;53.020;6.598;2022-07-29T07:32:06;16.00;99.90
52187;DHT22;38161;53.020;6.598;2022-07-29T07:34:32;16.00;99.90
52187;DHT22;38161;53.020;6.598;2022-07-29T07:36:59;16.10;99.90
52187;DHT22;38161;53.020;6.598;2022-07-29T07:39:24;16.10;99.90
52187;DHT22;38161;53.020;6.598;2022-07-29T07:41:52;16.10;99.90
52187;DHT22;38161;53.020;6.598;2022-07-29T07:44:18;16.20;99.90
52187;DHT22;38161;53.020;6.598;2022-07-29T07:46:44;16.20;99.90
52187;DHT22;38161;53.020;6.598;2022-07-29T07:49:10;16.20;99.90
52187;DHT22;38161;53.020;6.598;2022-07-29T07:51:36;16.20;99.90
52187;DHT22;38161;53.020;6.598;2022-07-29T07:54:02;16.30;99.90
52187;DHT22;38161;53.020;6.598;2022-07-29T07:56:28;16.30;99.90
52187;DHT22;38161;53.020;6.598;2022-07-29T07:58:53;16.30;99.90
52187;DHT22;38161;53.020;6.598;2022-07-29T08:01:19;16.40;99.90
52187;DHT22;38161;53.020;6.598;2022-07-29T08:03:49;16.40;99.90
52187;DHT22;38161;53.020;6.598;2022-07-29T08:06:14;16.40;99.90
52187;DHT22;38161;53.020;6.598;2022-07-29T08:08:40;16.50;99.90
52187;DHT22;38161;53.020;6.598;2022-07-29T08:11:06;16.60;99.90
52187;DHT22;38161;53.020;6.598;2022-07-29T08:13:32;16.60;99.90
52187;DHT22;38161;53.020;6.598;2022-07-29T08:15:58;16.60;99.90
52187;DHT22;38161;53.020;6.598;2022-07-29T08:18:30;16.70;99.90
52187;DHT22;38161;53.020;6.598;2022-07-29T08:20:57;16.70;99.90
52187;DHT22;38161;53.020;6.598;2022-07-29T08:23:23;16.70;99.90
52187;DHT22;38161;53.020;6.598;2022-07-29T08:25:49;16.80;99.90
52187;DHT22;38161;53.020;6.598;2022-07-29T08:28:16;16.80;99.90
52187;DHT22;38161;53.020;6.598;2022-07-29T08:30:41;16.80;99.90
52187;DHT22;38161;53.020;6.598;2022-07-29T08:33:07;16.80;99.90
52187;DHT22;38161;53.020;6.598;2022-07-29T08:35:33;16.90;99.90
52187;DHT22;38161;53.020;6.598;2022-07-29T08:37:58;16.90;99.90
52187;DHT22;38161;53.020;6.598;2022-07-29T08:40:24;16.90;99.90
52187;DHT22;38161;53.020;6.598;2022-07-29T08:42:50;16.90;99.90
52187;DHT22;38161;53.020;6.598;2022-07-29T08:45:16;16.90;99.90
52187;DHT22;38161;53.020;6.598;2022-07-29T08:47:44;16.90;99.90
52187;DHT22;38161;53.020;6.598;2022-07-29T08:50:11;17.00;99.90
52187;DHT22;38161;53.020;6.598;2022-07-29T08:52:37;17.10;99.90
52187;DHT22;38161;53.020;6.598;2022-07-29T08:55:08;17.10;99.90
52187;DHT22;38161;53.020;6.598;2022-07-29T08:57:35;17.20;99.90
52187;DHT22;38161;53.020;6.598;2022-07-29T09:00:03;17.20;99.90
52187;DHT22;38161;53.020;6.598;2022-07-29T09:02:35;17.20;99.90
52187;DHT22;38161;53.020;6.598;2022-07-29T09:05:01;17.20;99.90
52187;DHT22;38161;53.020;6.598;2022-07-29T09:07:28;17.30;99.90
52187;DHT22;38161;53.020;6.598;2022-07-29T09:09:54;17.30;99.90
52187;DHT22;38161;53.020;6.598;2022-07-29T09:12:20;17.40;99.90
52187;DHT22;38161;53.020;6.598;2022-07-29T09:14:47;17.40;99.90
52187;DHT22;38161;53.020;6.598;2022-07-29T09:17:14;17.30;99.90
52187;DHT22;38161;53.020;6.598;2022-07-29T09:19:42;17.40;99.90
52187;DHT22;38161;53.020;6.598;2022-07-29T09:22:07;17.40;99.90
52187;DHT22;38161;53.020;6.598;2022-07-29T09:27:26;17.40;99.90
52187;DHT22;38161;53.020;6.598;2022-07-29T09:30:02;17.50;99.90
52187;DHT22;38161;53.020;6.598;2022-07-29T09:32:28;17.50;99.90
52187;DHT22;38161;53.020;6.598;2022-07-29T09:35:24;17.60;99.90
52187;DHT22;38161;53.020;6.598;2022-07-29T09:37:50;17.60;99.90
52187;DHT22;38161;53.020;6.598;2022-07-29T09:40:19;17.70;99.90
52187;DHT22;38161;53.020;6.598;2022-07-29T09:42:45;17.70;99.90
52187;DHT22;38161;53.020;6.598;2022-07-29T09:45:11;17.70;99.90
52187;DHT22;38161;53.020;6.598;2022-07-29T09:47:46;17.70;99.90
52187;DHT22;38161;53.020;6.598;2022-07-29T09:50:14;17.70;99.90
52187;DHT22;38161;53.020;6.598;2022-07-29T09:52:51;17.70;99.90
52187;DHT22;38161;53.020;6.598;2022-07-29T09:55:18;17.70;99.90
52187;DHT22;38161;53.020;6.598;2022-07-29T09:57:46;17.70;99.90
52187;DHT22;38161;53.020;6.598;2022-07-29T10:00:17;17.60;99.90
52187;DHT22;38161;53.020;6.598;2022-07-29T10:02:44;17.60;99.90
52187;DHT22;38161;53.020;6.598;2022-07-29T10:05:26;17.60;99.90
52187;DHT22;38161;53.020;6.598;2022-07-29T10:07:57;17.60;99.90
52187;DHT22;38161;53.020;6.598;2022-07-29T10:10:27;17.70;99.90
52187;DHT22;38161;53.020;6.598;2022-07-29T10:12:58;17.70;99.90
52187;DHT22;38161;53.020;6.598;2022-07-29T10:15:30;17.80;99.90
52187;DHT22;38161;53.020;6.598;2022-07-29T10:17:57;17.80;99.90
52187;DHT22;38161;53.020;6.598;2022-07-29T10:20:24;17.80;99.90
52187;DHT22;38161;53.020;6.598;2022-07-29T10:22:52;17.80;99.90
52187;DHT22;38161;53.020;6.598;2022-07-29T10:25:18;17.90;99.90
52187;DHT22;38161;53.020;6.598;2022-07-29T10:27:46;17.90;99.90
52187;DHT22;38161;53.020;6.598;2022-07-29T10:30:13;18.00;99.90
52187;DHT22;38161;53.020;6.598;2022-07-29T10:35:27;18.00;99.90
52187;DHT22;38161;53.020;6.598;2022-07-29T10:38:24;18.00;99.90
52187;DHT22;38161;53.020;6.598;2022-07-29T10:43:49;18.10;99.90
52187;DHT22;38161;53.020;6.598;2022-07-29T10:46:17;18.10;99.90
52187;DHT22;38161;53.020;6.598;2022-07-29T10:49:09;18.20;99.90
52187;DHT22;38161;53.020;6.598;2022-07-29T10:54:41;18.30;99.90
52187;DHT22;38161;53.020;6.598;2022-07-29T10:59:46;18.40;99.90
52187;DHT22;38161;53.020;6.598;2022-07-29T11:05:20;18.50;99.90
52187;DHT22;38161;53.020;6.598;2022-07-29T11:08:19;18.50;99.90
52187;DHT22;38161;53.020;6.598;2022-07-29T11:10:51;18.60;99.90
52187;DHT22;38161;53.020;6.598;2022-07-29T11:16:08;18.90;99.90
52187;DHT22;38161;53.020;6.598;2022-07-29T11:18:34;19.10;99.90
52187;DHT22;38161;53.020;6.598;2022-07-29T11:21:00;19.30;99.90
52187;DHT22;38161;53.020;6.598;2022-07-29T11:23:30;19.40;99.90
52187;DHT22;38161;53.020;6.598;2022-07-29T11:29:20;19.50;99.90
52187;DHT22;38161;53.020;6.598;2022-07-29T11:31:51;19.70;99.90
52187;DHT22;38161;53.020;6.598;2022-07-29T11:34:29;20.00;99.90
52187;DHT22;38161;53.020;6.598;2022-07-29T11:40:07;20.60;99.90
52187;DHT22;38161;53.020;6.598;2022-07-29T11:45:08;20.90;99.90
52187;DHT22;38161;53.020;6.598;2022-07-29T11:47:40;21.10;99.90
52187;DHT22;38161;53.020;6.598;2022-07-29T11:50:09;21.30;99.90
52187;DHT22;38161;53.020;6.598;2022-07-29T11:52:37;21.40;99.90
52187;DHT22;38161;53.020;6.598;2022-07-29T11:55:09;21.60;99.90
52187;DHT22;38161;53.020;6.598;2022-07-29T11:57:35;21.90;99.90
52187;DHT22;38161;53.020;6.598;2022-07-29T12:00:05;22.00;99.90
52187;DHT22;38161;53.020;6.598;2022-07-29T12:02:43;21.90;99.90
52187;DHT22;38161;53.020;6.598;2022-07-29T12:05:10;22.00;99.90
52187;DHT22;38161;53.020;6.598;2022-07-29T12:07:37;22.10;99.90
52187;DHT22;38161;53.020;6.598;2022-07-29T12:10:05;22.10;99.90
52187;DHT22;38161;53.020;6.598;2022-07-29T12:12:32;22.10;99.90
52187;DHT22;38161;53.020;6.598;2022-07-29T12:14:57;22.10;99.90
52187;DHT22;38161;53.020;6.598;2022-07-29T12:17:30;22.20;99.90
52187;DHT22;38161;53.020;6.598;2022-07-29T12:19:58;22.20;99.90
52187;DHT22;38161;53.020;6.598;2022-07-29T12:22:34;22.20;99.90
52187;DHT22;38161;53.020;6.598;2022-07-29T12:25:05;22.20;99.90
52187;DHT22;38161;53.020;6.598;2022-07-29T12:27:31;22.10;99.90
52187;DHT22;38161;53.020;6.598;2022-07-29T12:30:07;22.00;99.90
52187;DHT22;38161;53.020;6.598;2022-07-29T12:32:38;22.00;99.90
52187;DHT22;38161;53.020;6.598;2022-07-29T12:35:09;21.90;99.90
52187;DHT22;38161;53.020;6.598;2022-07-29T12:37:37;21.90;99.90
52187;DHT22;38161;53.020;6.598;2022-07-29T12:40:05;22.00;99.90
52187;DHT22;38161;53.020;6.598;2022-07-29T12:42:32;22.00;99.90
52187;DHT22;38161;53.020;6.598;2022-07-29T12:44:58;22.10;99.90
52187;DHT22;38161;53.020;6.598;2022-07-29T12:47:24;22.20;99.90
52187;DHT22;38161;53.020;6.598;2022-07-29T12:49:50;22.30;99.90
52187;DHT22;38161;53.020;6.598;2022-07-29T12:52:33;22.30;99.90
52187;DHT22;38161;53.020;6.598;2022-07-29T12:55:00;22.30;99.90
52187;DHT22;38161;53.020;6.598;2022-07-29T12:57:27;22.40;99.90
52187;DHT22;38161;53.020;6.598;2022-07-29T13:00:10;22.50;99.90
52187;DHT22;38161;53.020;6.598;2022-07-29T13:02:38;22.50;99.90
52187;DHT22;38161;53.020;6.598;2022-07-29T13:05:07;22.60;99.90
52187;DHT22;38161;53.020;6.598;2022-07-29T13:07:34;22.60;99.90
52187;DHT22;38161;53.020;6.598;2022-07-29T13:10:17;22.70;99.90
52187;DHT22;38161;53.020;6.598;2022-07-29T13:15:31;22.80;99.90
52187;DHT22;38161;53.020;6.598;2022-07-29T13:17:58;22.80;99.90
52187;DHT22;38161;53.020;6.598;2022-07-29T13:20:24;22.90;99.90
52187;DHT22;38161;53.020;6.598;2022-07-29T13:22:50;22.90;99.90
52187;DHT22;38161;53.020;6.598;2022-07-29T13:25:24;22.90;99.90
52187;DHT22;38161;53.020;6.598;2022-07-29T13:27:50;22.90;99.90
52187;DHT22;38161;53.020;6.598;2022-07-29T13:30:16;22.80;99.90
52187;DHT22;38161;53.020;6.598;2022-07-29T13:32:41;22.70;99.90
52187;DHT22;38161;53.020;6.598;2022-07-29T13:35:08;22.70;99.90
52187;DHT22;38161;53.020;6.598;2022-07-29T13:37:36;22.60;99.90
52187;DHT22;38161;53.020;6.598;2022-07-29T13:40:05;22.60;99.90
52187;DHT22;38161;53.020;6.598;2022-07-29T13:42:32;22.70;99.90
52187;DHT22;38161;53.020;6.598;2022-07-29T13:44:57;22.80;99.90
52187;DHT22;38161;53.020;6.598;2022-07-29T13:47:24;22.90;99.90
52187;DHT22;38161;53.020;6.598;2022-07-29T13:49:50;23.00;99.90
52187;DHT22;38161;53.020;6.598;2022-07-29T13:52:16;23.10;99.90
52187;DHT22;38161;53.020;6.598;2022-07-29T13:54:43;23.20;99.90
52187;DHT22;38161;53.020;6.598;2022-07-29T13:57:10;23.40;99.90
52187;DHT22;38161;53.020;6.598;2022-07-29T13:59:39;23.60;99.90
52187;DHT22;38161;53.020;6.598;2022-07-29T14:02:05;23.80;99.90
52187;DHT22;38161;53.020;6.598;2022-07-29T14:04:32;23.90;99.90
52187;DHT22;38161;53.020;6.598;2022-07-29T14:06:57;23.90;99.90
52187;DHT22;38161;53.020;6.598;2022-07-29T14:09:23;24.00;99.90
52187;DHT22;38161;53.020;6.598;2022-07-29T14:11:49;24.00;99.90
52187;DHT22;38161;53.020;6.598;2022-07-29T14:14:17;24.10;99.90
52187;DHT22;38161;53.020;6.598;2022-07-29T14:16:42;24.10;99.90
52187;DHT22;38161;53.020;6.598;2022-07-29T14:19:08;24.10;99.90
52187;DHT22;38161;53.020;6.598;2022-07-29T14:21:34;24.10;99.90
52187;DHT22;38161;53.020;6.598;2022-07-29T14:24:00;24.10;99.90
52187;DHT22;38161;53.020;6.598;2022-07-29T14:26:26;24.10;99.90
52187;DHT22;38161;53.020;6.598;2022-07-29T14:28:51;24.10;99.90
52187;DHT22;38161;53.020;6.598;2022-07-29T14:31:17;24.10;99.90
52187;DHT22;38161;53.020;6.598;2022-07-29T14:33:43;24.20;99.90
52187;DHT22;38161;53.020;6.598;2022-07-29T14:36:09;24.20;99.90
52187;DHT22;38161;53.020;6.598;2022-07-29T14:38:35;24.20;99.90
52187;DHT22;38161;53.020;6.598;2022-07-29T14:41:01;24.30;99.90
52187;DHT22;38161;53.020;6.598;2022-07-29T14:43:27;24.20;99.90
52187;DHT22;38161;53.020;6.598;2022-07-29T14:45:52;24.30;99.90
52187;DHT22;38161;53.020;6.598;2022-07-29T14:48:18;24.30;99.90
52187;DHT22;38161;53.020;6.598;2022-07-29T14:50:44;24.30;99.90
52187;DHT22;38161;53.020;6.598;2022-07-29T14:53:10;24.20;99.90
52187;DHT22;38161;53.020;6.598;2022-07-29T14:55:37;24.20;99.90
52187;DHT22;38161;53.020;6.598;2022-07-29T14:58:03;24.20;99.90
52187;DHT22;38161;53.020;6.598;2022-07-29T15:00:28;24.20;99.90
52187;DHT22;38161;53.020;6.598;2022-07-29T15:02:58;24.10;99.90
52187;DHT22;38161;53.020;6.598;2022-07-29T15:05:25;24.10;99.90
52187;DHT22;38161;53.020;6.598;2022-07-29T15:07:50;24.10;99.90
52187;DHT22;38161;53.020;6.598;2022-07-29T15:10:16;24.10;99.90
52187;DHT22;38161;53.020;6.598;2022-07-29T15:12:45;24.00;99.90
52187;DHT22;38161;53.020;6.598;2022-07-29T15:15:11;24.00;99.90
52187;DHT22;38161;53.020;6.598;2022-07-29T15:17:37;24.00;99.90
52187;DHT22;38161;53.020;6.598;2022-07-29T15:20:03;24.00;99.90
52187;DHT22;38161;53.020;6.598;2022-07-29T15:22:29;23.90;99.90
52187;DHT22;38161;53.020;6.598;2022-07-29T15:24:55;23.90;99.90
52187;DHT22;38161;53.020;6.598;2022-07-29T15:27:20;23.90;99.90
52187;DHT22;38161;53.020;6.598;2022-07-29T15:29:46;24.00;99.90
52187;DHT22;38161;53.020;6.598;2022-07-29T15:32:12;23.90;99.90
52187;DHT22;38161;53.020;6.598;2022-07-29T15:34:38;24.00;99.90
52187;DHT22;38161;53.020;6.598;2022-07-29T15:37:04;23.90;99.90
52187;DHT22;38161;53.020;6.598;2022-07-29T15:39:30;24.00;99.90
52187;DHT22;38161;53.020;6.598;2022-07-29T15:41:56;23.90;99.90
52187;DHT22;38161;53.020;6.598;2022-07-29T15:44:22;23.90;99.90
52187;DHT22;38161;53.020;6.598;2022-07-29T15:46:48;23.90;99.90
52187;DHT22;38161;53.020;6.598;2022-07-29T15:49:34;23.90;99.90
52187;DHT22;38161;53.020;6.598;2022-07-29T15:52:02;23.90;99.90
52187;DHT22;38161;53.020;6.598;2022-07-29T15:54:29;23.90;99.90
52187;DHT22;38161;53.020;6.598;2022-07-29T15:56:55;23.90;99.90
52187;DHT22;38161;53.020;6.598;2022-07-29T15:59:21;23.80;99.90
52187;DHT22;38161;53.020;6.598;2022-07-29T16:01:47;23.80;99.90
52187;DHT22;38161;53.020;6.598;2022-07-29T16:04:13;23.80;99.90
52187;DHT22;38161;53.020;6.598;2022-07-29T16:06:39;23.70;99.90
52187;DHT22;38161;53.020;6.598;2022-07-29T16:09:04;23.70;99.90
52187;DHT22;38161;53.020;6.598;2022-07-29T16:11:30;23.60;99.90
52187;DHT22;38161;53.020;6.598;2022-07-29T16:13:56;23.60;99.90
52187;DHT22;38161;53.020;6.598;2022-07-29T16:16:21;23.60;99.90